createdAt,value
2023-01-11T00:01:03.867Z,100668.09
2023-01-11T00:03:31.303Z,100675.84
2023-01-11T00:05:59.125Z,100678.44
2023-01-11T00:08:28.845Z,100670.97
2023-01-11T00:10:55.725Z,100672.50
2023-01-11T00:13:22.328Z,100657.53
2023-01-11T00:15:48.848Z,100653.41
2023-01-11T00:18:15.346Z,100661.44
2023-01-11T00:20:41.831Z,100650.31
2023-01-11T00:23:08.638Z,100657.31
2023-01-11T00:25:35.745Z,100648.06
2023-01-11T00:28:02.233Z,100653.63
2023-01-11T00:30:28.722Z,100645.81
2023-01-11T00:32:59.663Z,100648.16
2023-01-11T00:35:27.303Z,100644.63
2023-01-11T00:37:54.396Z,100641.41
2023-01-11T00:40:21.678Z,100630.03
2023-01-11T00:43:06.677Z,100638.69
2023-01-11T00:45:51.936Z,100636.06
2023-01-11T00:48:18.525Z,100627.44
2023-01-11T00:50:44.994Z,100634.53
2023-01-11T00:53:11.655Z,100627.44
2023-01-11T00:55:38.248Z,100632.41
2023-01-11T00:58:04.948Z,100632.91
2023-01-11T01:00:31.503Z,100644.50
2023-01-11T01:02:58.031Z,100630.97
2023-01-11T01:05:24.850Z,100630.47
2023-01-11T01:07:51.581Z,100629.88
2023-01-11T01:10:19.362Z,100628.69
2023-01-11T01:13:04.989Z,100633.78
2023-01-11T01:15:32.321Z,100624.53
2023-01-11T01:17:58.855Z,100637.69
2023-01-11T01:20:25.612Z,100649.66
2023-01-11T01:22:52.204Z,100645.38
2023-01-11T01:25:18.704Z,100635.78
2023-01-11T01:27:45.169Z,100631.66
2023-01-11T01:30:12.140Z,100634.63
2023-01-11T01:32:39.337Z,100643.50
2023-01-11T01:35:06.241Z,100642.78
2023-01-11T01:37:32.722Z,100635.56
2023-01-11T01:39:59.234Z,100642.19
2023-01-11T01:42:25.758Z,100637.31
2023-01-11T01:45:00.010Z,100636.00
2023-01-11T01:47:46.571Z,100636.94
2023-01-11T01:50:23.132Z,100632.69
2023-01-11T01:52:53.372Z,100632.91
2023-01-11T01:55:28.680Z,100636.22
2023-01-11T01:57:57.732Z,100630.25
2023-01-11T02:00:24.477Z,100628.59
2023-01-11T02:02:51.139Z,100617.94
2023-01-11T02:05:18.478Z,100619.34
2023-01-11T02:07:45.936Z,100625.63
2023-01-11T02:10:20.424Z,100635.00
2023-01-11T02:12:59.401Z,100627.97
2023-01-11T02:15:26.002Z,100622.53
2023-01-11T02:17:52.487Z,100623.03
2023-01-11T02:20:18.891Z,100625.47
2023-01-11T02:23:03.558Z,100632.59
2023-01-11T02:26:07.693Z,100631.38
2023-01-11T02:28:46.708Z,100637.41
2023-01-11T02:31:23.169Z,100624.38
2023-01-11T02:34:21.316Z,100623.19
2023-01-11T02:37:33.969Z,100627.44
2023-01-11T02:40:07.219Z,100612.00
2023-01-11T02:43:06.359Z,100620.06
2023-01-11T02:46:10.438Z,100612.31
2023-01-11T02:48:47.598Z,100610.84
2023-01-11T02:51:22.117Z,100611.59
2023-01-11T02:54:18.510Z,100617.63
2023-01-11T02:56:48.574Z,100617.63
2023-01-11T02:59:22.017Z,100607.69
2023-01-11T03:01:55.471Z,100613.81
2023-01-11T03:04:22.810Z,100610.00
2023-01-11T03:06:52.114Z,100612.25
2023-01-11T03:09:36.092Z,100615.81
2023-01-11T03:12:55.168Z,100605.22
2023-01-11T03:15:56.832Z,100603.91
2023-01-11T03:18:37.744Z,100603.56
2023-01-11T03:21:09.484Z,100589.41
2023-01-11T03:23:54.584Z,100595.47
2023-01-11T03:26:35.365Z,100609.13
2023-01-11T03:29:15.560Z,100608.53
2023-01-11T03:31:53.741Z,100601.81
2023-01-11T03:34:29.248Z,100605.97
2023-01-11T03:37:16.393Z,100606.47
2023-01-11T03:39:47.860Z,100596.97
2023-01-11T03:42:20.156Z,100610.94
2023-01-11T03:44:51.770Z,100609.69
2023-01-11T03:47:22.000Z,100607.06
2023-01-11T03:49:56.527Z,100614.25
2023-01-11T03:52:28.444Z,100610.22
2023-01-11T03:54:55.877Z,100607.22
2023-01-11T03:57:26.071Z,100607.88
2023-01-11T03:59:53.354Z,100600.75
2023-01-11T04:02:27.456Z,100615.09
2023-01-11T04:04:54.374Z,100615.81
2023-01-11T04:07:20.953Z,100611.41
2023-01-11T04:09:47.470Z,100618.78
2023-01-11T04:12:13.940Z,100613.19
2023-01-11T04:14:40.413Z,100611.19
2023-01-11T04:17:06.910Z,100618.66
2023-01-11T04:19:33.399Z,100627.03
2023-01-11T04:21:59.982Z,100627.19
2023-01-11T04:24:26.486Z,100619.97
2023-01-11T04:26:53.015Z,100623.97
2023-01-11T04:29:19.492Z,100623.31
2023-01-11T04:31:46.020Z,100626.47
2023-01-11T04:34:12.624Z,100618.09
2023-01-11T04:36:39.154Z,100621.66
2023-01-11T04:39:06.421Z,100623.88
2023-01-11T04:41:51.231Z,100639.38
2023-01-11T04:44:17.691Z,100632.91
2023-01-11T04:46:44.180Z,100626.28
2023-01-11T04:49:10.661Z,100642.19
2023-01-11T04:51:37.171Z,100645.44
2023-01-11T04:54:03.705Z,100649.06
2023-01-11T04:56:30.323Z,100650.47
2023-01-11T04:58:56.839Z,100662.50
2023-01-11T05:01:23.383Z,100661.66
2023-01-11T05:03:51.144Z,100659.44
2023-01-11T05:06:25.740Z,100661.09
2023-01-11T05:08:52.329Z,100654.28
2023-01-11T05:11:18.899Z,100647.47
2023-01-11T05:13:45.525Z,100656.28
2023-01-11T05:16:12.061Z,100655.63
2023-01-11T05:18:43.455Z,100673.50
2023-01-11T05:21:12.790Z,100666.94
2023-01-11T05:23:40.430Z,100678.16
2023-01-11T05:26:09.881Z,100681.44
2023-01-11T05:28:36.369Z,100677.31
2023-01-11T05:31:03.084Z,100683.94
2023-01-11T05:33:29.637Z,100677.88
2023-01-11T05:36:12.681Z,100682.78
2023-01-11T05:38:39.242Z,100689.41
2023-01-11T05:41:08.194Z,100679.22
2023-01-11T05:43:58.532Z,100694.88
2023-01-11T05:46:26.505Z,100692.88
2023-01-11T05:48:54.678Z,100692.66
2023-01-11T05:51:21.403Z,100701.41
2023-01-11T05:53:48.018Z,100696.28
2023-01-11T05:56:14.541Z,100693.81
2023-01-11T05:58:41.088Z,100694.06
2023-01-11T06:01:07.704Z,100699.19
2023-01-11T06:03:34.257Z,100713.59
2023-01-11T06:06:00.863Z,100708.88
2023-01-11T06:08:27.325Z,100713.16
2023-01-11T06:10:55.204Z,100717.75
2023-01-11T06:13:27.849Z,100710.50
2023-01-11T06:15:55.124Z,100718.13
2023-01-11T06:18:21.938Z,100715.63
2023-01-11T06:20:53.012Z,100721.84
2023-01-11T06:23:20.027Z,100721.50
2023-01-11T06:25:46.988Z,100738.38
2023-01-11T06:28:14.009Z,100743.50
2023-01-11T06:30:41.197Z,100738.25
2023-01-11T06:33:08.769Z,100757.88
2023-01-11T06:35:40.845Z,100754.56
2023-01-11T06:38:10.480Z,100747.94
2023-01-11T06:40:38.549Z,100766.00
2023-01-11T06:43:05.983Z,100784.28
2023-01-11T06:45:32.873Z,100757.94
2023-01-11T06:47:59.928Z,100775.38
2023-01-11T06:50:27.057Z,100781.09
2023-01-11T06:53:01.881Z,100770.66
2023-01-11T06:55:28.753Z,100795.25
2023-01-11T06:57:55.315Z,100813.75
2023-01-11T07:00:21.916Z,100814.81
2023-01-11T07:02:48.950Z,100819.22
2023-01-11T07:05:18.884Z,100807.13
2023-01-11T07:07:45.763Z,100808.22
2023-01-11T07:10:15.007Z,100802.75
2023-01-11T07:12:42.099Z,100800.03
2023-01-11T07:15:10.184Z,100815.22
2023-01-11T07:17:37.321Z,100815.47
2023-01-11T07:20:05.273Z,100823.03
2023-01-11T07:22:36.582Z,100834.22
2023-01-11T07:25:04.582Z,100849.78
2023-01-11T07:27:31.395Z,100836.97
2023-01-11T07:29:59.826Z,100847.75
2023-01-11T07:32:27.787Z,100846.09
2023-01-11T07:34:55.451Z,100855.38
2023-01-11T07:37:28.243Z,100862.38
2023-01-11T07:39:55.724Z,100858.31
2023-01-11T07:42:40.843Z,100855.25
2023-01-11T07:45:08.077Z,100868.91
2023-01-11T07:47:34.639Z,100862.84
2023-01-11T07:50:01.189Z,100863.91
2023-01-11T07:52:27.701Z,100871.50
2023-01-11T07:54:54.300Z,100867.34
2023-01-11T07:57:20.881Z,100877.44
2023-01-11T07:59:47.416Z,100895.97
2023-01-11T08:02:14.047Z,100904.88
2023-01-11T08:04:40.634Z,100898.56
2023-01-11T08:07:07.168Z,100904.25
2023-01-11T08:09:33.692Z,100897.38
2023-01-11T08:12:18.620Z,100907.47
2023-01-11T08:14:45.186Z,100910.41
2023-01-11T08:17:14.905Z,100918.84
2023-01-11T08:19:42.115Z,100923.94
2023-01-11T08:22:09.752Z,100941.16
2023-01-11T08:24:36.523Z,100939.72
2023-01-11T08:27:04.273Z,100956.91
2023-01-11T08:29:31.607Z,100953.84
2023-01-11T08:31:59.404Z,100962.28
2023-01-11T08:34:27.573Z,100965.69
2023-01-11T08:36:55.591Z,100977.44
2023-01-11T08:39:22.320Z,100995.09
2023-01-11T08:41:48.799Z,100998.88
2023-01-11T08:44:22.279Z,100992.63
2023-01-11T08:46:59.596Z,100992.25
2023-01-11T08:49:26.245Z,100999.34
2023-01-11T08:51:52.737Z,100994.38
2023-01-11T08:54:19.235Z,101004.69
2023-01-11T08:56:45.783Z,101004.44
2023-01-11T08:59:12.392Z,101012.47
2023-01-11T09:01:39.221Z,101009.31
2023-01-11T09:04:19.115Z,101011.66
2023-01-11T09:06:49.827Z,101010.47
2023-01-11T09:09:16.896Z,101016.34
2023-01-11T09:11:56.956Z,100995.63
2023-01-11T09:14:25.339Z,101004.03
2023-01-11T09:16:53.010Z,101002.59
2023-01-11T09:19:20.220Z,101013.97
2023-01-11T09:21:46.899Z,101013.59
2023-01-11T09:24:14.019Z,101011.94
2023-01-11T09:26:43.312Z,101015.94
2023-01-11T09:29:11.373Z,101024.13
2023-01-11T09:31:38.344Z,101032.53
2023-01-11T09:34:06.858Z,101040.94
2023-01-11T09:36:35.780Z,101044.72
2023-01-11T09:39:06.215Z,101038.69
2023-01-11T09:41:44.849Z,101051.84
2023-01-11T09:44:21.207Z,101056.47
2023-01-11T09:46:51.629Z,101072.81
2023-01-11T09:49:27.953Z,101059.56
2023-01-11T09:52:09.631Z,101064.59
2023-01-11T09:54:36.663Z,101053.69
2023-01-11T09:57:18.263Z,101075.25
2023-01-11T09:59:56.816Z,101063.06
2023-01-11T10:02:52.206Z,101067.22
2023-01-11T10:05:34.798Z,101071.38
2023-01-11T10:18:27.371Z,101078.00
2023-01-11T10:18:32.084Z,101074.53
2023-01-11T10:21:13.245Z,101070.28
2023-01-11T10:23:49.545Z,101061.88
2023-01-11T10:26:32.406Z,101075.88
2023-01-11T10:29:22.196Z,101080.28
2023-01-11T10:32:02.389Z,101074.38
2023-01-11T10:34:56.180Z,101072.22
2023-01-11T10:37:50.168Z,101080.19
2023-01-11T10:40:39.714Z,101090.63
2023-01-11T10:43:21.858Z,101078.44
2023-01-11T10:45:52.722Z,101080.34
2023-01-11T10:48:38.580Z,101083.44
2023-01-11T10:51:05.134Z,101076.44
2023-01-11T10:53:41.036Z,101088.78
2023-01-11T10:56:42.538Z,101078.25
2023-01-11T10:59:31.642Z,101090.84
2023-01-11T11:02:01.044Z,101090.34
2023-01-11T11:04:42.567Z,101083.84
2023-01-11T11:07:21.108Z,101090.34
2023-01-11T11:10:03.352Z,101093.09
2023-01-11T11:12:37.317Z,101091.56
2023-01-11T11:15:31.599Z,101103.69
2023-01-11T11:17:58.305Z,101097.84
2023-01-11T11:20:30.035Z,101092.75
2023-01-11T11:22:57.536Z,101091.22
2023-01-11T11:25:37.472Z,101090.63
2023-01-11T11:28:23.914Z,101091.00
2023-01-11T11:30:54.655Z,101087.44
2023-01-11T11:33:40.961Z,101098.47
2023-01-11T11:36:10.008Z,101093.50
2023-01-11T11:39:01.357Z,101109.88
2023-01-11T11:41:27.922Z,101100.63
2023-01-11T11:44:14.224Z,101104.31
2023-01-11T11:46:40.777Z,101116.91
2023-01-11T11:49:15.714Z,101109.91
2023-01-11T11:51:45.392Z,101102.56
2023-01-11T11:54:29.743Z,101104.59
2023-01-11T11:56:58.858Z,101102.44
2023-01-11T11:59:29.721Z,101116.47
2023-01-11T12:02:00.539Z,101106.72
2023-01-11T12:04:53.598Z,101107.69
2023-01-11T12:07:33.119Z,101114.00
2023-01-11T12:10:05.569Z,101101.53
2023-01-11T12:12:35.873Z,101097.97
2023-01-11T12:15:08.532Z,101097.00
2023-01-11T12:17:35.314Z,101107.69
2023-01-11T12:20:01.834Z,101111.50
2023-01-11T12:22:29.090Z,101101.88
2023-01-11T12:25:15.554Z,101114.47
2023-01-11T12:28:18.854Z,101115.53
2023-01-11T12:31:02.606Z,101119.53
2023-01-11T12:33:48.001Z,101129.19
2023-01-11T12:36:29.947Z,101114.09
2023-01-11T12:39:14.860Z,101128.38
2023-01-11T12:42:14.383Z,101124.31
2023-01-11T12:44:58.196Z,101137.53
2023-01-11T12:48:18.507Z,101123.41
2023-01-11T12:50:58.345Z,101122.56
2023-01-11T12:53:45.910Z,101120.41
2023-01-11T12:56:47.393Z,101122.91
2023-01-11T12:59:54.454Z,101117.22
2023-01-11T13:03:08.378Z,101123.44
2023-01-11T13:06:01.609Z,101134.44
2023-01-11T13:08:58.848Z,101114.25
2023-01-11T13:11:43.337Z,101127.06
2023-01-11T13:14:44.240Z,101130.41
2023-01-11T13:17:22.671Z,101128.97
2023-01-11T13:20:04.380Z,101123.97
2023-01-11T13:22:36.378Z,101127.19
2023-01-11T13:25:12.408Z,101129.09
2023-01-11T13:27:40.054Z,101121.72
2023-01-11T13:30:12.468Z,101129.44
2023-01-11T13:32:43.022Z,101119.97
2023-01-11T13:35:19.222Z,101143.25
2023-01-11T13:38:13.536Z,101142.75
2023-01-11T13:40:47.124Z,101144.66
2023-01-11T13:43:21.020Z,101140.28
2023-01-11T13:46:15.601Z,101131.38
2023-01-11T13:48:49.166Z,101132.00
2023-01-11T13:51:27.592Z,101138.06
2023-01-11T13:54:05.575Z,101135.56
2023-01-11T13:56:36.164Z,101134.97
2023-01-11T13:59:13.937Z,101127.81
2023-01-11T14:01:56.547Z,101125.31
2023-01-11T14:04:46.777Z,101128.03
2023-01-11T14:08:00.654Z,101124.69
2023-01-11T14:10:56.082Z,101114.84
2023-01-11T14:13:53.025Z,101105.47
2023-01-11T14:16:29.866Z,101117.69
2023-01-11T14:19:08.619Z,101112.22
2023-01-11T14:21:59.527Z,101110.69
2023-01-11T14:24:30.198Z,101109.25
2023-01-11T14:27:25.308Z,101115.09
2023-01-11T14:30:19.381Z,101101.41
2023-01-11T14:33:19.987Z,101103.31
2023-01-11T14:36:19.709Z,101115.56
2023-01-11T14:39:18.509Z,101122.91
2023-01-11T14:41:57.174Z,101124.47
2023-01-11T14:44:50.060Z,101118.16
2023-01-11T14:47:35.582Z,101118.00
2023-01-11T14:50:11.081Z,101115.75
2023-01-11T14:52:40.832Z,101113.72
2023-01-11T14:55:16.733Z,101124.66
2023-01-11T14:57:59.011Z,101120.28
2023-01-11T15:00:25.427Z,101114.34
2023-01-11T15:02:59.406Z,101116.72
2023-01-11T15:05:32.700Z,101120.88
2023-01-11T15:08:14.476Z,101120.38
2023-01-11T15:10:47.135Z,101128.84
2023-01-11T15:13:19.696Z,101133.94
2023-01-11T15:16:05.143Z,101128.00
2023-01-11T15:18:31.991Z,101124.66
2023-01-11T15:21:04.802Z,101135.00
2023-01-11T15:23:45.457Z,101131.06
2023-01-11T15:26:14.640Z,101127.75
2023-01-11T15:28:58.063Z,101137.00
2023-01-11T15:31:53.747Z,101127.75
2023-01-11T15:34:27.177Z,101125.34
2023-01-11T15:37:13.903Z,101120.69
2023-01-11T15:39:45.500Z,101128.78
2023-01-11T15:42:17.745Z,101126.25
2023-01-11T15:44:56.631Z,101131.13
2023-01-11T15:47:50.432Z,101137.19
2023-01-11T15:51:07.582Z,101133.03
2023-01-11T15:54:10.652Z,101128.84
2023-01-11T15:57:14.294Z,101130.16
2023-01-11T15:59:56.998Z,101137.97
2023-01-11T16:02:45.494Z,101129.78
2023-01-11T16:05:17.919Z,101135.72
2023-01-11T16:08:07.589Z,101142.84
2023-01-11T16:10:57.316Z,101155.41
2023-01-11T16:13:29.664Z,101150.41
2023-01-11T16:16:20.102Z,101162.75
2023-01-11T16:19:07.994Z,101159.06
2023-01-11T16:21:38.944Z,101158.03
2023-01-11T16:24:13.774Z,101167.84
2023-01-11T16:26:41.301Z,101179.03
2023-01-11T16:29:14.095Z,101175.66
2023-01-11T16:32:18.211Z,101177.13
2023-01-11T16:34:47.075Z,101174.84
2023-01-11T16:37:19.397Z,101176.97
2023-01-11T16:39:49.291Z,101167.34
2023-01-11T16:42:15.913Z,101162.72
2023-01-11T16:44:59.520Z,101156.44
2023-01-11T16:47:26.067Z,101158.75
2023-01-11T16:50:14.061Z,101160.44
2023-01-11T16:52:53.223Z,101164.94
2023-01-11T16:55:30.950Z,101167.03
2023-01-11T16:58:00.957Z,101165.00
2023-01-11T17:00:32.461Z,101166.09
2023-01-11T17:03:22.178Z,101174.28
2023-01-11T17:06:08.372Z,101174.28
2023-01-11T17:08:36.193Z,101161.06
2023-01-11T17:11:10.625Z,101166.75
2023-01-11T17:14:14.294Z,101168.44
2023-01-11T17:16:50.527Z,101162.97
2023-01-11T17:19:23.981Z,101163.41
2023-01-11T17:21:52.936Z,101156.31
2023-01-11T17:24:26.006Z,101145.84
2023-01-11T17:27:00.466Z,101149.41
2023-01-11T17:29:37.907Z,101139.56
2023-01-11T17:32:07.521Z,101142.31
2023-01-11T17:34:37.016Z,101140.00
2023-01-11T17:37:10.414Z,101140.25
2023-01-11T17:39:42.753Z,101134.19
2023-01-11T17:42:31.389Z,101154.09
2023-01-11T17:45:13.849Z,101140.69
2023-01-11T17:47:46.566Z,101138.66
2023-01-11T17:50:31.693Z,101143.03
2023-01-11T17:53:26.658Z,101141.59
2023-01-11T17:55:55.703Z,101146.06
2023-01-11T17:58:30.393Z,101158.06
2023-01-11T18:01:09.686Z,101160.16
2023-01-11T18:03:45.452Z,101157.06
2023-01-11T18:06:18.650Z,101146.63
2023-01-11T18:08:48.468Z,101143.66
2023-01-11T18:11:23.921Z,101138.22
2023-01-11T18:13:56.879Z,101132.97
2023-01-11T18:16:24.091Z,101117.66
2023-01-11T18:18:52.158Z,101131.53
2023-01-11T18:21:40.254Z,101123.13
2023-01-11T18:24:12.721Z,101117.53
2023-01-11T18:26:45.516Z,101117.53
2023-01-11T18:29:20.277Z,101127.16
2023-01-11T18:31:46.815Z,101111.84
2023-01-11T18:34:13.317Z,101117.28
2023-01-11T18:36:39.784Z,101104.28
2023-01-11T18:39:11.346Z,101117.91
2023-01-11T18:41:58.079Z,101096.09
2023-01-11T18:44:25.075Z,101111.75
2023-01-11T18:46:51.703Z,101104.41
2023-01-11T18:49:18.170Z,101090.78
2023-01-11T18:51:45.199Z,101097.31
2023-01-11T18:54:16.925Z,101096.84
2023-01-11T18:56:44.033Z,101093.06
2023-01-11T18:59:10.547Z,101085.09
2023-01-11T19:01:54.018Z,101090.72
2023-01-11T19:04:24.843Z,101091.53
2023-01-11T19:06:52.269Z,101090.25
2023-01-11T19:09:18.907Z,101102.22
2023-01-11T19:11:45.453Z,101081.00
2023-01-11T19:14:12.040Z,101076.38
2023-01-11T19:16:38.585Z,101066.53
2023-01-11T19:19:05.111Z,101060.00
2023-01-11T19:21:31.642Z,101049.94
2023-01-11T19:23:58.505Z,101046.59
2023-01-11T19:26:27.594Z,101051.22
2023-01-11T19:28:54.196Z,101043.63
2023-01-11T19:31:20.717Z,101045.56
2023-01-11T19:33:47.684Z,101039.84
2023-01-11T19:36:14.176Z,101031.44
2023-01-11T19:38:40.706Z,101058.47
2023-01-11T19:41:09.080Z,101048.66
2023-01-11T19:43:36.286Z,101045.69
2023-01-11T19:46:03.922Z,101044.03
2023-01-11T19:48:33.085Z,101036.44
2023-01-11T19:51:04.477Z,101039.38
2023-01-11T19:53:32.203Z,101047.94
2023-01-11T19:56:03.179Z,101055.16
2023-01-11T19:58:30.105Z,101042.00
2023-01-11T20:00:56.782Z,101026.53
2023-01-11T20:03:23.595Z,101024.88
2023-01-11T20:05:50.392Z,101014.41
2023-01-11T20:08:17.234Z,101019.50
2023-01-11T20:10:43.773Z,101017.03
2023-01-11T20:13:10.289Z,101007.84
2023-01-11T20:15:38.564Z,100997.16
2023-01-11T20:18:05.194Z,100988.63
2023-01-11T20:20:31.759Z,100988.03
2023-01-11T20:22:58.302Z,100987.19
2023-01-11T20:25:24.889Z,100980.53
2023-01-11T20:27:51.491Z,100979.47
2023-01-11T20:30:17.994Z,100978.63
2023-01-11T20:32:45.549Z,100979.69
2023-01-11T20:35:12.093Z,100983.72
2023-01-11T20:37:38.699Z,100981.59
2023-01-11T20:40:05.762Z,100992.13
2023-01-11T20:42:32.279Z,100990.84
2023-01-11T20:44:58.820Z,100986.06
2023-01-11T20:47:25.332Z,100990.69
2023-01-11T20:49:51.821Z,100984.63
2023-01-11T20:52:18.295Z,100985.91
2023-01-11T20:54:44.816Z,100997.44
2023-01-11T20:57:12.880Z,101004.16
2023-01-11T20:59:39.513Z,101009.25
2023-01-11T21:02:07.485Z,101004.78
2023-01-11T21:04:35.653Z,100997.28
2023-01-11T21:07:02.643Z,100981.16
2023-01-11T21:09:29.235Z,101004.03
2023-01-11T21:11:55.756Z,100977.84
2023-01-11T21:14:22.534Z,100990.63
2023-01-11T21:16:49.282Z,100988.13
2023-01-11T21:19:16.244Z,100983.13
2023-01-11T21:21:43.349Z,100978.50
2023-01-11T21:24:13.645Z,101006.59
2023-01-11T21:26:42.151Z,100976.25
2023-01-11T21:29:10.315Z,100978.72
2023-01-11T21:31:37.690Z,100975.16
2023-01-11T21:34:04.640Z,100983.34
2023-01-11T21:36:31.601Z,100975.63
2023-01-11T21:38:59.376Z,100988.66
2023-01-11T21:41:47.248Z,100980.25
2023-01-11T21:44:15.111Z,100984.44
2023-01-11T21:46:41.927Z,100973.91
2023-01-11T21:49:09.282Z,100977.69
2023-01-11T21:51:36.116Z,100976.63
2023-01-11T21:54:07.883Z,101009.06
2023-01-11T21:56:35.070Z,100977.69
2023-01-11T21:59:01.961Z,100983.97
2023-01-11T22:01:29.086Z,100989.19
2023-01-11T22:03:56.237Z,100986.91
2023-01-11T22:06:23.416Z,100992.34
2023-01-11T22:08:50.079Z,100975.16
2023-01-11T22:11:17.222Z,100981.69
2023-01-11T22:13:43.872Z,100974.38
2023-01-11T22:16:16.039Z,100967.00
2023-01-11T22:18:43.386Z,100971.63
2023-01-11T22:21:14.851Z,100979.81
2023-01-11T22:23:41.670Z,100976.47
2023-01-11T22:26:13.999Z,100978.59
2023-01-11T22:29:00.266Z,100975.25
2023-01-11T22:31:28.658Z,100982.38
2023-01-11T22:33:56.035Z,100987.44
2023-01-11T22:36:24.238Z,100999.19
2023-01-11T22:38:51.531Z,101002.13
2023-01-11T22:41:18.341Z,100997.50
2023-01-11T22:43:45.950Z,100977.00
2023-01-11T22:46:17.829Z,100985.38
2023-01-11T22:48:44.599Z,100967.69
2023-01-11T22:51:11.463Z,100986.41
2023-01-11T22:53:42.784Z,101002.19
2023-01-11T22:56:11.451Z,101001.13
2023-01-11T22:58:38.495Z,100995.69
2023-01-11T23:01:11.860Z,100997.56
2023-01-11T23:03:39.146Z,101001.72
2023-01-11T23:06:06.214Z,101012.63
2023-01-11T23:08:43.211Z,101001.34
2023-01-11T23:11:13.192Z,101001.94
2023-01-11T23:14:01.941Z,101004.91
2023-01-11T23:16:28.754Z,100987.72
2023-01-11T23:18:55.802Z,100985.00
2023-01-11T23:21:22.401Z,100991.88
2023-01-11T23:23:48.929Z,101007.00
2023-01-11T23:26:18.212Z,100996.34
2023-01-11T23:28:45.826Z,101003.69
2023-01-11T23:31:16.573Z,100981.28
2023-01-11T23:33:47.376Z,100990.53
2023-01-11T23:36:15.328Z,101000.78
2023-01-11T23:38:42.111Z,100976.34
2023-01-11T23:41:29.706Z,100994.97
2023-01-11T23:43:56.864Z,100994.13
2023-01-11T23:46:42.578Z,100987.00
2023-01-11T23:49:10.598Z,100985.38
2023-01-11T23:51:37.929Z,100984.28
2023-01-11T23:54:05.560Z,100993.53
2023-01-11T23:56:33.249Z,100987.25
2023-01-11T23:59:00.447Z,101000.19
